Time;durP1;ratioP1;P1;durP2;ratioP2;P2;SDS_P1;SDS_P2;PMS_P1;PMS_P2;Temp;Humidity;BMP_temperature;BMP_pressure;BME280_temperature;BME280_humidity;BME280_pressure;Samples;Min_cycle;Max_cycle;Signal;HPM_P1;HPM_P2
2021/10/03 00:02:58;;;;;;;4.30;2.80;;;17.30;99.90;;;;;;12488867;28;20194;-36
2021/10/03 00:09:00;;;;;;;5.28;2.90;;;17.30;99.90;;;;;;12515488;28;20052;-36
2021/10/03 00:15:02;;;;;;;7.35;2.75;;;17.40;99.90;;;;;;12474185;28;20801;-37
2021/10/03 00:21:05;;;;;;;5.80;2.95;;;17.40;99.90;;;;;;12467170;28;20057;-42
2021/10/03 00:27:07;;;;;;;8.98;2.78;;;17.50;99.90;;;;;;12510873;28;20056;-36
2021/10/03 00:33:09;;;;;;;7.45;2.63;;;17.60;99.90;;;;;;12487250;28;20061;-39
2021/10/03 00:39:12;;;;;;;6.65;2.97;;;17.60;99.90;;;;;;12468937;28;20045;-36
2021/10/03 00:45:16;;;;;;;5.30;2.60;;;17.60;99.90;;;;;;12503191;28;20053;-40
2021/10/03 00:51:18;;;;;;;6.03;2.65;;;17.60;99.90;;;;;;12501139;28;20418;-41
2021/10/03 00:57:20;;;;;;;5.38;2.80;;;17.70;99.90;;;;;;12467015;28;20463;-42
2021/10/03 01:03:22;;;;;;;7.47;2.85;;;17.70;99.90;;;;;;12486968;28;20529;-37
2021/10/03 01:09:24;;;;;;;5.07;2.72;;;17.70;99.90;;;;;;12512252;28;20099;-36
2021/10/03 01:15:26;;;;;;;4.50;2.65;;;17.60;99.90;;;;;;12465279;28;20099;-40
2021/10/03 01:21:28;;;;;;;6.20;2.83;;;17.70;99.90;;;;;;12478187;28;20049;-36
2021/10/03 01:27:30;;;;;;;5.80;2.85;;;17.60;99.90;;;;;;12512368;28;20095;-40
2021/10/03 01:33:32;;;;;;;5.22;3.00;;;17.60;99.90;;;;;;12482210;28;20053;-41
2021/10/03 01:39:34;;;;;;;5.70;2.70;;;17.60;99.90;;;;;;12464794;28;20100;-39
2021/10/03 01:45:36;;;;;;;8.00;2.90;;;17.60;99.90;;;;;;12463659;28;20049;-38
2021/10/03 01:51:39;;;;;;;4.03;2.65;;;17.50;99.90;;;;;;12459837;28;20041;-36
2021/10/03 01:57:40;;;;;;;3.85;2.53;;;17.50;99.90;;;;;;12463085;28;20046;-37
2021/10/03 02:03:42;;;;;;;5.95;2.92;;;17.30;99.90;;;;;;12462310;28;20057;-40
2021/10/03 02:09:45;;;;;;;4.68;3.00;;;17.40;99.90;;;;;;12465579;28;20052;-40
2021/10/03 02:15:48;;;;;;;4.88;3.05;;;17.50;99.90;;;;;;12475818;28;20050;-40
2021/10/03 02:21:51;;;;;;;5.68;2.95;;;17.60;99.90;;;;;;12474153;28;20091;-40
2021/10/03 02:27:53;;;;;;;4.87;3.10;;;17.50;99.90;;;;;;12475251;28;20100;-37
2021/10/03 02:33:55;;;;;;;7.07;3.22;;;17.40;99.90;;;;;;12472197;28;20060;-36
2021/10/03 02:39:57;;;;;;;9.40;3.58;;;17.40;99.90;;;;;;12477727;28;20103;-36
2021/10/03 02:46:00;;;;;;;5.38;2.92;;;17.40;99.90;;;;;;12472773;28;20045;-36
2021/10/03 02:52:02;;;;;;;5.40;3.10;;;17.50;99.90;;;;;;12474072;28;20049;-39
2021/10/03 02:58:05;;;;;;;6.32;3.08;;;17.50;99.90;;;;;;12472475;28;20553;-37
2021/10/03 03:04:07;;;;;;;4.95;2.95;;;17.60;99.90;;;;;;12472734;28;20702;-39
2021/10/03 03:10:09;;;;;;;5.47;3.15;;;17.70;99.90;;;;;;12470026;28;20042;-36
2021/10/03 03:16:11;;;;;;;5.35;3.08;;;17.80;99.90;;;;;;12471570;28;20057;-40
2021/10/03 03:22:13;;;;;;;4.20;2.85;;;17.80;99.90;;;;;;12472437;28;20163;-40
2021/10/03 03:28:16;;;;;;;5.40;3.00;;;17.90;99.90;;;;;;12472461;28;20064;-36
2021/10/03 03:34:18;;;;;;;4.88;2.70;;;17.90;99.90;;;;;;12475669;28;20041;-40
2021/10/03 03:40:20;;;;;;;6.38;2.53;;;17.90;99.90;;;;;;12470497;28;20099;-40
2021/10/03 03:46:22;;;;;;;5.60;2.47;;;17.90;99.90;;;;;;12469739;28;20049;-42
2021/10/03 03:52:24;;;;;;;5.60;2.67;;;17.90;99.90;;;;;;12470834;28;20042;-36
2021/10/03 03:58:26;;;;;;;4.63;2.30;;;17.90;99.90;;;;;;12473445;28;20049;-38
2021/10/03 04:04:30;;;;;;;4.65;2.83;;;18.00;99.90;;;;;;12467458;28;20177;-40
2021/10/03 04:10:37;;;;;;;4.00;2.30;;;18.00;99.90;;;;;;12468395;28;20474;-40
2021/10/03 04:16:38;;;;;;;4.55;2.78;;;18.00;99.90;;;;;;12468152;28;20046;-41
2021/10/03 04:22:40;;;;;;;4.47;2.20;;;18.00;99.90;;;;;;12470374;28;20076;-37
2021/10/03 04:28:42;;;;;;;4.10;2.38;;;18.00;99.90;;;;;;12469779;28;20065;-36
2021/10/03 04:34:44;;;;;;;5.10;3.10;;;18.00;99.90;;;;;;12469145;28;20049;-36
2021/10/03 04:40:45;;;;;;;4.25;3.00;;;18.10;99.90;;;;;;12466610;28;20054;-36
2021/10/03 04:46:47;;;;;;;6.35;3.17;;;18.00;99.90;;;;;;12469607;28;20053;-40
2021/10/03 04:52:49;;;;;;;4.47;2.75;;;18.10;99.90;;;;;;12468623;28;21062;-36
2021/10/03 04:58:51;;;;;;;5.25;3.30;;;18.00;99.90;;;;;;12469905;28;20655;-40
2021/10/03 05:04:52;;;;;;;7.88;3.67;;;17.80;99.90;;;;;;12466446;28;20049;-43
2021/10/03 05:10:54;;;;;;;5.85;3.55;;;17.70;99.90;;;;;;12466604;28;20045;-41
2021/10/03 05:16:56;;;;;;;5.57;3.78;;;17.60;99.90;;;;;;12467938;28;20243;-37
2021/10/03 05:22:58;;;;;;;7.32;3.67;;;17.50;99.90;;;;;;12467626;28;20049;-39
2021/10/03 05:29:00;;;;;;;6.22;3.85;;;17.60;99.90;;;;;;12472173;28;20111;-36
2021/10/03 05:35:03;;;;;;;6.47;4.10;;;17.60;99.90;;;;;;12464759;28;20106;-37
2021/10/03 05:41:05;;;;;;;6.67;4.10;;;17.60;99.90;;;;;;12471475;28;20060;-39
2021/10/03 05:47:07;;;;;;;8.18;4.45;;;17.80;99.90;;;;;;12467470;28;20416;-38
2021/10/03 05:53:09;;;;;;;6.57;4.40;;;17.80;99.90;;;;;;12468547;28;20073;-41
2021/10/03 05:59:14;;;;;;;6.28;4.13;;;17.90;99.90;;;;;;12470126;28;20091;-36
2021/10/03 06:05:16;;;;;;;8.40;3.95;;;18.10;99.90;;;;;;12465131;28;20053;-36
2021/10/03 06:11:18;;;;;;;7.75;4.20;;;18.20;99.90;;;;;;12466576;28;20046;-36
2021/10/03 06:17:20;;;;;;;4.93;3.72;;;18.30;99.90;;;;;;12465884;28;20107;-40
2021/10/03 06:23:21;;;;;;;4.97;3.55;;;18.30;99.90;;;;;;12466496;28;20049;-36
2021/10/03 06:29:23;;;;;;;5.88;3.75;;;18.30;99.90;;;;;;12464928;28;20053;-36
2021/10/03 06:35:25;;;;;;;7.72;3.47;;;18.40;99.90;;;;;;12466660;28;20053;-36
2021/10/03 06:41:27;;;;;;;6.82;3.58;;;18.50;99.90;;;;;;12473801;28;20576;-36
2021/10/03 06:47:28;;;;;;;6.38;3.97;;;18.50;99.90;;;;;;12510670;28;20075;-36
2021/10/03 06:53:32;;;;;;;5.75;3.63;;;18.50;99.90;;;;;;12481123;28;20045;-36
2021/10/03 06:59:34;;;;;;;5.53;3.53;;;18.60;99.90;;;;;;12467320;28;20057;-40
2021/10/03 07:05:35;;;;;;;5.07;3.58;;;18.60;99.90;;;;;;12467775;28;20056;-42
2021/10/03 07:11:37;;;;;;;5.57;3.55;;;18.70;99.90;;;;;;12482600;28;20076;-38
2021/10/03 07:17:39;;;;;;;8.30;3.83;;;18.70;99.90;;;;;;12517710;28;20519;-42
2021/10/03 07:23:41;;;;;;;7.63;3.75;;;18.60;99.90;;;;;;12490923;28;20049;-36
2021/10/03 07:29:44;;;;;;;4.85;3.45;;;18.40;99.90;;;;;;12473361;28;20596;-36
2021/10/03 07:35:46;;;;;;;8.68;3.80;;;18.40;99.90;;;;;;12515217;28;20576;-42
2021/10/03 07:41:48;;;;;;;6.55;3.58;;;18.30;99.90;;;;;;12502235;28;20053;-42
2021/10/03 07:47:50;;;;;;;4.55;3.45;;;18.20;99.90;;;;;;12465651;28;20049;-41
2021/10/03 07:53:52;;;;;;;6.80;4.00;;;18.00;99.90;;;;;;12500316;28;20613;-36
2021/10/03 07:59:54;;;;;;;6.00;3.85;;;17.90;99.90;;;;;;12531038;28;20052;-38
2021/10/03 08:05:56;;;;;;;6.07;3.45;;;17.90;99.90;;;;;;12472073;28;20053;-36
2021/10/03 08:11:58;;;;;;;6.13;3.88;;;17.90;99.90;;;;;;12483230;28;20090;-36
2021/10/03 08:18:04;;;;;;;7.30;3.80;;;17.80;99.90;;;;;;12515881;28;20056;-41
2021/10/03 08:24:06;;;;;;;4.68;3.33;;;17.70;99.90;;;;;;12473288;28;20086;-39
2021/10/03 08:30:10;;;;;;;5.00;3.40;;;17.80;99.90;;;;;;12464207;28;20107;-36
2021/10/03 08:36:12;;;;;;;;;;;18.00;99.90;;;;;;12468681;28;20171;-37
2021/10/03 08:42:14;;;;;;;4.72;3.00;;;18.10;99.90;;;;;;12464542;28;19933;-41
2021/10/03 08:48:17;;;;;;;5.25;3.00;;;18.30;99.90;;;;;;12468288;28;20057;-36
2021/10/03 08:54:19;;;;;;;4.32;2.80;;;18.30;99.90;;;;;;12499635;28;20107;-39
2021/10/03 09:00:23;;;;;;;6.47;3.17;;;18.40;99.90;;;;;;12513359;28;20060;-40
2021/10/03 09:06:25;;;;;;;;;;;18.50;99.90;;;;;;12468041;28;20476;-36
2021/10/03 09:12:36;;;;;;;4.53;2.88;;;18.70;99.90;;;;;;12486942;28;19924;-36
2021/10/03 09:18:50;;;;;;;7.45;2.97;;;18.80;99.90;;;;;;12510553;28;20048;-40
2021/10/03 09:24:51;;;;;;;;;;;19.00;99.90;;;;;;12475188;28;20506;-36
2021/10/03 09:31:15;;;;;;;4.47;2.90;;;19.10;99.90;;;;;;12474155;28;20344;-40
2021/10/03 09:37:32;;;;;;;;;;;19.20;99.90;;;;;;12518162;28;20048;-36
2021/10/03 09:43:47;;;;;;;7.00;3.40;;;19.30;99.90;;;;;;12485259;28;20497;-36
2021/10/03 09:49:49;;;;;;;5.25;2.80;;;19.30;99.90;;;;;;12465015;28;20053;-36
2021/10/03 09:55:52;;;;;;;5.55;3.22;;;19.30;99.90;;;;;;12507333;28;20460;-37
2021/10/03 10:01:54;;;;;;;4.82;3.05;;;19.10;99.90;;;;;;12498170;28;20087;-36
2021/10/03 10:07:58;;;;;;;7.18;3.10;;;18.70;99.90;;;;;;12466067;28;20064;-37
2021/10/03 10:14:02;;;;;;;5.13;2.95;;;18.70;99.90;;;;;;12497748;28;20086;-36
2021/10/03 10:20:24;;;;;;;4.78;2.60;;;18.70;99.90;;;;;;12508243;28;20054;-36
2021/10/03 10:26:38;;;;;;;6.47;3.13;;;18.80;99.90;;;;;;12466120;28;20085;-36
2021/10/03 10:32:55;;;;;;;4.63;2.78;;;18.70;99.90;;;;;;12487896;28;20115;-40
2021/10/03 10:39:09;;;;;;;7.22;2.70;;;19.10;99.90;;;;;;12521026;28;20079;-37
2021/10/03 10:45:26;;;;;;;6.05;2.40;;;19.20;99.90;;;;;;12479844;28;20499;-36
2021/10/03 10:51:28;;;;;;;5.40;2.67;;;19.40;99.90;;;;;;12486932;28;20167;-36
2021/10/03 10:57:53;;;;;;;6.05;3.17;;;19.20;99.90;;;;;;12520225;28;20052;-40
2021/10/03 11:03:56;;;;;;;3.92;2.60;;;19.10;99.90;;;;;;12488611;28;20128;-36
2021/10/03 11:10:00;;;;;;;7.65;2.80;;;18.90;99.90;;;;;;12476386;28;20486;-37
2021/10/03 11:16:25;;;;;;;;;;;18.80;99.90;;;;;;12514302;28;20179;-42
2021/10/03 11:22:29;;;;;;;4.85;2.97;;;18.80;99.90;;;;;;12496801;28;19925;-40
2021/10/03 11:28:51;;;;;;;6.38;2.90;;;18.80;99.90;;;;;;12472237;28;20096;-37
2021/10/03 11:35:05;;;;;;;5.25;2.70;;;18.90;99.90;;;;;;12471838;28;20516;-40
2021/10/03 11:41:08;;;;;;;4.40;2.40;;;19.00;99.90;;;;;;12468905;28;20111;-36
2021/10/03 11:47:12;;;;;;;4.90;2.22;;;19.10;99.90;;;;;;12471483;28;20148;-36
2021/10/03 11:53:18;;;;;;;3.70;2.70;;;19.30;99.90;;;;;;12495818;28;20110;-40
2021/10/03 11:59:20;;;;;;;5.45;2.53;;;19.40;99.90;;;;;;12516515;28;20334;-40
2021/10/03 12:05:28;;;;;;;6.38;2.65;;;19.50;99.90;;;;;;12515361;28;20060;-40
2021/10/03 12:11:29;;;;;;;5.43;2.80;;;19.30;99.90;;;;;;12505496;28;20108;-40
2021/10/03 12:17:49;;;;;;;5.28;2.88;;;19.10;99.90;;;;;;12469428;28;20476;-36
2021/10/03 12:24:04;;;;;;;5.32;2.50;;;19.10;99.90;;;;;;12468386;28;20056;-40
2021/10/03 12:30:08;;;;;;;6.20;2.80;;;19.00;99.90;;;;;;12467168;28;20446;-38
2021/10/03 12:36:15;;;;;;;4.43;2.58;;;19.00;99.90;;;;;;12513779;28;20098;-40
2021/10/03 12:42:20;;;;;;;7.07;2.72;;;19.10;99.90;;;;;;12495921;28;20058;-41
2021/10/03 12:48:22;;;;;;;4.30;2.78;;;19.20;99.90;;;;;;12467319;28;20080;-37
2021/10/03 12:54:24;;;;;;;4.18;2.72;;;19.40;99.90;;;;;;12465077;28;20049;-41
2021/10/03 13:00:26;;;;;;;5.95;2.58;;;19.50;99.90;;;;;;12469450;28;20468;-40
2021/10/03 13:06:28;;;;;;;4.82;2.92;;;19.70;99.90;;;;;;12513349;28;20053;-40
2021/10/03 13:12:30;;;;;;;3.95;2.75;;;19.80;99.90;;;;;;12493566;28;20118;-41
2021/10/03 13:18:33;;;;;;;5.18;2.58;;;19.90;99.90;;;;;;12466992;28;20123;-36
2021/10/03 13:24:34;;;;;;;5.67;2.80;;;19.80;99.90;;;;;;12502073;28;20057;-36
2021/10/03 13:30:37;;;;;;;6.72;2.70;;;19.90;99.90;;;;;;12508210;28;20049;-36
2021/10/03 13:36:38;;;;;;;3.78;2.40;;;19.80;99.90;;;;;;12467666;28;20076;-39
2021/10/03 13:42:40;;;;;;;4.65;2.80;;;19.80;99.90;;;;;;12485606;28;20198;-37
2021/10/03 13:48:42;;;;;;;4.90;2.50;;;19.90;99.90;;;;;;12507993;28;20094;-40
2021/10/03 13:54:44;;;;;;;5.22;2.58;;;20.10;99.90;;;;;;12471699;28;20053;-37
2021/10/03 14:00:46;;;;;;;3.97;2.67;;;20.00;99.90;;;;;;12464057;28;20049;-36
2021/10/03 14:06:48;;;;;;;4.72;2.58;;;20.00;99.90;;;;;;12461729;28;20492;-40
2021/10/03 14:12:50;;;;;;;4.53;2.60;;;20.00;99.90;;;;;;12467900;28;20053;-36
2021/10/03 14:18:53;;;;;;;3.42;2.33;;;20.00;99.90;;;;;;12471334;28;20482;-36
2021/10/03 14:24:55;;;;;;;4.20;2.38;;;20.10;99.90;;;;;;12509502;28;20098;-37
2021/10/03 14:30:57;;;;;;;6.90;2.50;;;20.20;99.90;;;;;;12511036;28;20099;-36
2021/10/03 14:36:59;;;;;;;4.85;2.53;;;20.20;99.90;;;;;;12470259;28;20053;-36
2021/10/03 14:43:01;;;;;;;5.15;2.60;;;20.20;99.90;;;;;;12494405;28;20621;-40
2021/10/03 14:49:03;;;;;;;5.25;2.60;;;20.20;99.90;;;;;;12514795;28;20045;-40
2021/10/03 14:55:05;;;;;;;4.63;2.78;;;20.20;99.90;;;;;;12477250;28;20110;-36
2021/10/03 15:01:08;;;;;;;3.97;2.50;;;20.20;99.90;;;;;;12470264;28;20054;-37
2021/10/03 15:07:10;;;;;;;6.93;2.90;;;20.20;99.90;;;;;;12469854;28;20049;-40
2021/10/03 15:13:12;;;;;;;4.43;2.70;;;20.20;99.90;;;;;;12468554;28;20049;-41
2021/10/03 15:19:15;;;;;;;4.03;2.55;;;20.20;99.90;;;;;;12468721;28;20061;-40
2021/10/03 15:25:18;;;;;;;5.47;2.20;;;20.20;99.90;;;;;;12505926;28;20140;-40
2021/10/03 15:31:20;;;;;;;5.00;3.05;;;20.20;99.90;;;;;;12500684;28;20057;-37
2021/10/03 15:37:22;;;;;;;4.32;2.47;;;20.20;99.90;;;;;;12449938;28;20057;-43
2021/10/03 15:43:24;;;;;;;6.18;2.53;;;20.20;99.90;;;;;;12457177;28;20049;-36
2021/10/03 15:49:26;;;;;;;6.70;2.72;;;20.10;99.90;;;;;;12464935;28;20051;-40
2021/10/03 15:55:28;;;;;;;2.90;1.83;;;20.20;99.90;;;;;;12508234;28;20056;-36
2021/10/03 16:01:30;;;;;;;3.97;2.30;;;20.30;99.90;;;;;;12502572;28;20049;-40
2021/10/03 16:07:33;;;;;;;4.72;2.10;;;20.30;99.90;;;;;;12466469;28;20057;-40
2021/10/03 16:13:36;;;;;;;4.43;2.20;;;20.30;99.90;;;;;;12466094;28;20053;-36
2021/10/03 16:19:37;;;;;;;3.30;1.75;;;20.30;99.90;;;;;;12463448;28;20073;-44
2021/10/03 16:25:39;;;;;;;2.75;1.45;;;20.30;99.90;;;;;;12507601;28;20049;-40
2021/10/03 16:31:42;;;;;;;4.07;1.45;;;20.30;99.90;;;;;;12496816;28;20056;-41
2021/10/03 16:37:45;;;;;;;5.80;1.67;;;20.20;99.90;;;;;;12462132;28;20100;-36
2021/10/03 16:43:47;;;;;;;2.67;1.10;;;20.10;99.90;;;;;;12464394;28;20045;-36
2021/10/03 16:49:49;;;;;;;2.63;1.40;;;20.10;99.90;;;;;;12465231;28;20049;-37
2021/10/03 16:55:51;;;;;;;2.30;0.98;;;20.00;99.90;;;;;;12465473;28;20490;-40
2021/10/03 17:01:53;;;;;;;3.10;1.02;;;20.00;99.90;;;;;;12472650;28;20046;-38
2021/10/03 17:07:55;;;;;;;4.60;0.98;;;19.90;99.90;;;;;;12512381;28;20486;-37
2021/10/03 17:13:57;;;;;;;3.42;1.30;;;19.70;99.90;;;;;;12481146;28;20095;-40
2021/10/03 17:19:59;;;;;;;2.88;1.08;;;19.70;99.90;;;;;;12460170;28;20049;-39
2021/10/03 17:26:01;;;;;;;2.17;1.00;;;19.50;99.90;;;;;;12510956;28;20099;-36
2021/10/03 17:32:02;;;;;;;6.55;0.90;;;19.30;99.90;;;;;;12490874;28;20561;-36
2021/10/03 17:38:04;;;;;;;1.17;0.73;;;19.20;99.90;;;;;;12459523;28;20049;-38
2021/10/03 17:44:06;;;;;;;2.90;0.82;;;19.10;99.90;;;;;;12457534;28;20053;-38
2021/10/03 17:50:09;;;;;;;1.55;0.70;;;19.00;99.90;;;;;;12460647;28;20096;-40
2021/10/03 17:56:11;;;;;;;1.10;0.80;;;18.70;99.90;;;;;;12460743;28;20056;-41
2021/10/03 18:02:12;;;;;;;2.35;0.95;;;18.40;99.90;;;;;;12459042;28;20107;-38
2021/10/03 18:08:14;;;;;;;2.75;0.65;;;18.30;99.90;;;;;;12456368;28;20049;-41
2021/10/03 18:14:16;;;;;;;1.23;0.60;;;18.00;99.90;;;;;;12460052;28;20510;-41
2021/10/03 18:20:18;;;;;;;1.00;0.50;;;17.60;99.90;;;;;;12460870;28;20110;-41
2021/10/03 18:26:20;;;;;;;0.50;0.30;;;17.30;99.90;;;;;;12459029;28;20094;-43
2021/10/03 18:32:22;;;;;;;0.90;0.38;;;16.90;99.90;;;;;;12461719;28;21169;-40
2021/10/03 18:38:24;;;;;;;0.40;0.22;;;16.60;99.90;;;;;;12459660;28;20062;-37
2021/10/03 18:44:25;;;;;;;0.52;0.47;;;16.50;99.90;;;;;;12461263;28;20520;-41
2021/10/03 18:50:28;;;;;;;0.60;0.40;;;16.10;99.90;;;;;;12455353;28;20075;-40
2021/10/03 18:56:30;;;;;;;1.55;0.43;;;15.60;99.90;;;;;;12468192;28;20107;-42
2021/10/03 19:02:36;;;;;;;0.50;0.30;;;15.10;99.90;;;;;;12465477;28;20050;-41
2021/10/03 19:08:38;;;;;;;0.57;0.30;;;15.00;99.90;;;;;;12467641;28;20053;-40
2021/10/03 19:14:39;;;;;;;0.98;0.30;;;14.90;99.90;;;;;;12467572;28;20499;-37
2021/10/03 19:20:41;;;;;;;0.40;0.30;;;14.90;99.90;;;;;;12472419;28;20060;-41
2021/10/03 19:26:43;;;;;;;0.50;0.20;;;14.80;99.90;;;;;;12515523;28;20049;-37
2021/10/03 19:32:45;;;;;;;0.98;0.30;;;14.80;99.90;;;;;;12493243;28;20488;-40
2021/10/03 19:38:47;;;;;;;0.85;0.43;;;14.60;99.90;;;;;;12463163;28;20049;-37
2021/10/03 19:44:50;;;;;;;0.70;0.50;;;14.50;99.90;;;;;;12464804;28;20045;-40
2021/10/03 19:50:53;;;;;;;0.57;0.30;;;14.40;99.90;;;;;;12465153;28;20046;-44
2021/10/03 19:56:54;;;;;;;0.98;0.40;;;14.20;99.90;;;;;;12468339;28;20111;-36
2021/10/03 20:02:56;;;;;;;1.25;0.47;;;14.20;99.90;;;;;;12467703;28;20104;-37
2021/10/03 20:08:58;;;;;;;0.75;0.40;;;14.10;99.90;;;;;;12466375;28;20046;-40
2021/10/03 20:15:00;;;;;;;0.95;0.40;;;14.00;99.90;;;;;;12507203;28;20057;-36
2021/10/03 20:21:03;;;;;;;1.33;0.50;;;14.00;99.90;;;;;;12505072;28;20478;-37
2021/10/03 20:27:05;;;;;;;1.33;0.70;;;14.00;99.90;;;;;;12463079;28;20106;-36
2021/10/03 20:33:09;;;;;;;0.80;0.40;;;14.00;99.90;;;;;;12491545;28;20503;-36
2021/10/03 20:39:11;;;;;;;2.83;0.63;;;14.00;99.90;;;;;;12515604;28;20111;-36
2021/10/03 20:45:15;;;;;;;1.10;0.57;;;13.90;99.90;;;;;;12470000;28;20450;-36
2021/10/03 20:51:17;;;;;;;0.93;0.40;;;13.90;99.90;;;;;;12465553;28;20441;-36
2021/10/03 20:57:19;;;;;;;2.30;0.47;;;13.90;99.90;;;;;;12463470;28;20103;-41
2021/10/03 21:03:21;;;;;;;0.80;0.38;;;13.80;99.90;;;;;;12466112;28;20049;-36
2021/10/03 21:09:28;;;;;;;1.60;0.50;;;13.80;99.90;;;;;;12467685;28;20056;-40
2021/10/03 21:15:29;;;;;;;1.33;0.50;;;13.70;99.90;;;;;;12508658;28;20098;-36
2021/10/03 21:21:31;;;;;;;2.50;0.70;;;13.60;99.90;;;;;;12500761;28;20103;-36
2021/10/03 21:27:33;;;;;;;2.45;1.38;;;13.60;99.90;;;;;;12466352;28;20103;-36
2021/10/03 21:33:35;;;;;;;3.55;1.98;;;13.50;99.90;;;;;;12493700;28;20102;-40
2021/10/03 21:39:37;;;;;;;4.40;2.88;;;13.40;99.90;;;;;;12509993;28;20057;-36
2021/10/03 21:45:38;;;;;;;5.25;3.95;;;13.50;99.90;;;;;;12464009;28;20053;-36
2021/10/03 21:51:40;;;;;;;6.18;4.32;;;13.40;99.90;;;;;;12460081;28;20049;-41
2021/10/03 21:57:43;;;;;;;6.50;4.22;;;13.40;99.90;;;;;;12461199;28;20210;-36
2021/10/03 22:03:46;;;;;;;6.15;4.13;;;13.30;99.90;;;;;;12462591;28;20664;-39
2021/10/03 22:09:48;;;;;;;7.27;4.40;;;13.30;99.90;;;;;;12463182;28;20453;-36
2021/10/03 22:15:50;;;;;;;6.22;4.20;;;13.40;99.90;;;;;;12461294;28;20119;-37
2021/10/03 22:21:52;;;;;;;5.53;3.70;;;13.50;99.90;;;;;;12460522;28;20164;-41
2021/10/03 22:27:55;;;;;;;6.50;3.63;;;13.30;99.90;;;;;;12463461;28;20072;-36
2021/10/03 22:33:57;;;;;;;5.45;3.00;;;13.20;99.90;;;;;;12500061;28;20143;-36
2021/10/03 22:39:59;;;;;;;8.25;3.53;;;13.10;99.90;;;;;;12522085;28;20494;-37
2021/10/03 22:46:00;;;;;;;6.18;2.40;;;13.20;99.90;;;;;;12475300;28;20045;-35
2021/10/03 22:52:03;;;;;;;5.78;2.00;;;13.10;99.90;;;;;;12471097;28;20056;-39
2021/10/03 22:58:05;;;;;;;3.90;1.60;;;13.00;99.90;;;;;;12465997;28;20053;-36
2021/10/03 23:04:06;;;;;;;3.95;1.80;;;13.10;99.90;;;;;;12501925;28;20461;-36
2021/10/03 23:10:08;;;;;;;4.35;1.60;;;13.00;99.90;;;;;;12515493;28;20118;-36
2021/10/03 23:16:10;;;;;;;2.97;1.50;;;13.00;99.90;;;;;;12468455;28;20103;-40
2021/10/03 23:22:12;;;;;;;3.20;1.40;;;13.00;99.90;;;;;;12487975;28;20053;-41
2021/10/03 23:28:14;;;;;;;4.20;1.35;;;12.90;99.90;;;;;;12518500;28;20044;-40
2021/10/03 23:34:16;;;;;;;4.28;1.15;;;12.90;99.90;;;;;;12514781;28;20057;-36
2021/10/03 23:40:18;;;;;;;3.17;1.20;;;12.90;99.90;;;;;;12512554;28;20053;-39
2021/10/03 23:46:19;;;;;;;4.60;1.08;;;12.90;99.90;;;;;;12468562;28;20537;-41
2021/10/03 23:52:22;;;;;;;2.28;1.00;;;12.90;99.90;;;;;;12488965;28;20483;-42
2021/10/03 23:58:23;;;;;;;6.70;1.10;;;12.90;99.90;;;;;;12516524;28;20140;-39
